sensor_id;sensor_type;location;lat;lon;timestamp;P1;durP1;ratioP1;P2;durP2;ratioP2
28481;SDS011;15703;49.588;6.260;2023-03-15T00:01:51;17.03;;;9.73;;
28481;SDS011;15703;49.588;6.260;2023-03-15T00:04:16;10.50;;;9.17;;
28481;SDS011;15703;49.588;6.260;2023-03-15T00:06:38;12.30;;;9.67;;
28481;SDS011;15703;49.588;6.260;2023-03-15T00:09:01;12.17;;;8.53;;
28481;SDS011;15703;49.588;6.260;2023-03-15T00:11:23;12.07;;;9.30;;
28481;SDS011;15703;49.588;6.260;2023-03-15T00:13:46;22.37;;;9.67;;
28481;SDS011;15703;49.588;6.260;2023-03-15T00:16:08;12.83;;;9.13;;
28481;SDS011;15703;49.588;6.260;2023-03-15T00:18:30;13.30;;;9.10;;
28481;SDS011;15703;49.588;6.260;2023-03-15T00:20:53;10.93;;;8.60;;
28481;SDS011;15703;49.588;6.260;2023-03-15T00:23:16;17.40;;;10.43;;
28481;SDS011;15703;49.588;6.260;2023-03-15T00:25:38;16.37;;;10.10;;
28481;SDS011;15703;49.588;6.260;2023-03-15T00:28:10;16.27;;;10.03;;
28481;SDS011;15703;49.588;6.260;2023-03-15T00:30:32;17.67;;;10.37;;
28481;SDS011;15703;49.588;6.260;2023-03-15T00:32:54;17.10;;;11.70;;
28481;SDS011;15703;49.588;6.260;2023-03-15T00:35:43;19.90;;;12.30;;
28481;SDS011;15703;49.588;6.260;2023-03-15T00:38:09;22.03;;;14.40;;
28481;SDS011;15703;49.588;6.260;2023-03-15T00:40:32;22.23;;;15.20;;
28481;SDS011;15703;49.588;6.260;2023-03-15T00:43:00;27.43;;;15.60;;
28481;SDS011;15703;49.588;6.260;2023-03-15T00:46:32;29.80;;;15.03;;
28481;SDS011;15703;49.588;6.260;2023-03-15T00:49:03;25.70;;;14.70;;
28481;SDS011;15703;49.588;6.260;2023-03-15T00:51:26;21.93;;;15.03;;
28481;SDS011;15703;49.588;6.260;2023-03-15T00:53:51;21.87;;;14.10;;
28481;SDS011;15703;49.588;6.260;2023-03-15T00:56:15;25.40;;;14.57;;
28481;SDS011;15703;49.588;6.260;2023-03-15T00:58:41;24.13;;;15.37;;
28481;SDS011;15703;49.588;6.260;2023-03-15T01:01:10;24.23;;;15.33;;
28481;SDS011;15703;49.588;6.260;2023-03-15T01:04:02;33.50;;;17.43;;
28481;SDS011;15703;49.588;6.260;2023-03-15T01:06:27;24.90;;;15.87;;
28481;SDS011;15703;49.588;6.260;2023-03-15T01:08:52;28.97;;;16.60;;
28481;SDS011;15703;49.588;6.260;2023-03-15T01:11:18;24.80;;;15.63;;
28481;SDS011;15703;49.588;6.260;2023-03-15T01:13:41;28.70;;;15.40;;
28481;SDS011;15703;49.588;6.260;2023-03-15T01:16:04;23.13;;;15.27;;
28481;SDS011;15703;49.588;6.260;2023-03-15T01:18:26;26.60;;;14.63;;
28481;SDS011;15703;49.588;6.260;2023-03-15T01:20:50;22.60;;;15.47;;
28481;SDS011;15703;49.588;6.260;2023-03-15T01:23:12;26.03;;;15.50;;
28481;SDS011;15703;49.588;6.260;2023-03-15T01:25:35;28.20;;;14.20;;
28481;SDS011;15703;49.588;6.260;2023-03-15T01:28:00;24.33;;;14.23;;
28481;SDS011;15703;49.588;6.260;2023-03-15T01:30:22;25.33;;;14.30;;
28481;SDS011;15703;49.588;6.260;2023-03-15T01:32:45;22.30;;;14.03;;
28481;SDS011;15703;49.588;6.260;2023-03-15T01:35:07;22.53;;;15.47;;
28481;SDS011;15703;49.588;6.260;2023-03-15T01:37:30;21.50;;;15.20;;
28481;SDS011;15703;49.588;6.260;2023-03-15T01:39:54;22.80;;;14.77;;
28481;SDS011;15703;49.588;6.260;2023-03-15T01:42:16;23.20;;;14.83;;
28481;SDS011;15703;49.588;6.260;2023-03-15T01:44:49;19.13;;;13.73;;
28481;SDS011;15703;49.588;6.260;2023-03-15T01:47:12;28.67;;;15.00;;
28481;SDS011;15703;49.588;6.260;2023-03-15T01:49:34;24.60;;;15.13;;
28481;SDS011;15703;49.588;6.260;2023-03-15T01:57:34;28.57;;;15.57;;
28481;SDS011;15703;49.588;6.260;2023-03-15T01:59:41;24.70;;;14.63;;
28481;SDS011;15703;49.588;6.260;2023-03-15T02:02:04;23.57;;;15.10;;
28481;SDS011;15703;49.588;6.260;2023-03-15T02:04:29;27.27;;;15.83;;
28481;SDS011;15703;49.588;6.260;2023-03-15T02:06:52;24.10;;;15.47;;
28481;SDS011;15703;49.588;6.260;2023-03-15T02:09:22;29.33;;;16.10;;
28481;SDS011;15703;49.588;6.260;2023-03-15T02:11:45;28.47;;;16.47;;
28481;SDS011;15703;49.588;6.260;2023-03-15T02:14:10;25.97;;;16.77;;
28481;SDS011;15703;49.588;6.260;2023-03-15T02:16:35;22.97;;;14.93;;
28481;SDS011;15703;49.588;6.260;2023-03-15T02:19:05;27.13;;;14.53;;
28481;SDS011;15703;49.588;6.260;2023-03-15T02:24:37;27.67;;;13.43;;
28481;SDS011;15703;49.588;6.260;2023-03-15T02:26:44;26.67;;;13.37;;
28481;SDS011;15703;49.588;6.260;2023-03-15T02:29:07;18.53;;;12.27;;
28481;SDS011;15703;49.588;6.260;2023-03-15T02:31:30;14.40;;;10.53;;
28481;SDS011;15703;49.588;6.260;2023-03-15T02:33:58;20.50;;;12.13;;
28481;SDS011;15703;49.588;6.260;2023-03-15T02:36:25;21.63;;;11.50;;
28481;SDS011;15703;49.588;6.260;2023-03-15T02:38:48;14.37;;;11.63;;
28481;SDS011;15703;49.588;6.260;2023-03-15T02:41:10;12.77;;;9.47;;
28481;SDS011;15703;49.588;6.260;2023-03-15T02:43:33;19.17;;;11.87;;
28481;SDS011;15703;49.588;6.260;2023-03-15T02:45:56;17.53;;;10.90;;
28481;SDS011;15703;49.588;6.260;2023-03-15T02:48:19;24.43;;;12.70;;
28481;SDS011;15703;49.588;6.260;2023-03-15T02:50:41;19.00;;;13.27;;
28481;SDS011;15703;49.588;6.260;2023-03-15T02:53:05;17.47;;;12.27;;
28481;SDS011;15703;49.588;6.260;2023-03-15T02:55:29;27.30;;;13.50;;
28481;SDS011;15703;49.588;6.260;2023-03-15T02:57:55;19.37;;;12.50;;
28481;SDS011;15703;49.588;6.260;2023-03-15T03:00:18;19.97;;;12.73;;
28481;SDS011;15703;49.588;6.260;2023-03-15T03:02:42;20.17;;;12.20;;
28481;SDS011;15703;49.588;6.260;2023-03-15T03:05:05;21.70;;;12.67;;
28481;SDS011;15703;49.588;6.260;2023-03-15T03:07:29;19.00;;;11.37;;
28481;SDS011;15703;49.588;6.260;2023-03-15T03:09:57;18.83;;;11.10;;
28481;SDS011;15703;49.588;6.260;2023-03-15T03:12:20;20.93;;;11.93;;
28481;SDS011;15703;49.588;6.260;2023-03-15T03:14:43;20.17;;;10.67;;
28481;SDS011;15703;49.588;6.260;2023-03-15T03:17:10;22.30;;;12.03;;
28481;SDS011;15703;49.588;6.260;2023-03-15T03:19:33;18.93;;;11.37;;
28481;SDS011;15703;49.588;6.260;2023-03-15T03:21:55;17.70;;;10.43;;
28481;SDS011;15703;49.588;6.260;2023-03-15T03:24:34;19.77;;;11.20;;
28481;SDS011;15703;49.588;6.260;2023-03-15T03:27:36;18.67;;;11.10;;
28481;SDS011;15703;49.588;6.260;2023-03-15T03:30:01;13.73;;;10.63;;
28481;SDS011;15703;49.588;6.260;2023-03-15T03:32:30;17.60;;;11.17;;
28481;SDS011;15703;49.588;6.260;2023-03-15T03:35:00;22.03;;;10.93;;
28481;SDS011;15703;49.588;6.260;2023-03-15T03:37:23;19.70;;;10.70;;
28481;SDS011;15703;49.588;6.260;2023-03-15T03:40:05;24.40;;;10.17;;
28481;SDS011;15703;49.588;6.260;2023-03-15T03:42:29;19.57;;;10.77;;
28481;SDS011;15703;49.588;6.260;2023-03-15T03:45:11;16.37;;;10.73;;
28481;SDS011;15703;49.588;6.260;2023-03-15T03:47:37;24.87;;;11.33;;
28481;SDS011;15703;49.588;6.260;2023-03-15T03:50:01;24.70;;;10.50;;
28481;SDS011;15703;49.588;6.260;2023-03-15T03:52:24;20.67;;;11.10;;
28481;SDS011;15703;49.588;6.260;2023-03-15T03:54:57;17.43;;;10.53;;
28481;SDS011;15703;49.588;6.260;2023-03-15T03:57:19;20.50;;;11.33;;
28481;SDS011;15703;49.588;6.260;2023-03-15T03:59:42;22.43;;;11.70;;
28481;SDS011;15703;49.588;6.260;2023-03-15T04:02:05;23.03;;;11.30;;
28481;SDS011;15703;49.588;6.260;2023-03-15T04:04:33;25.70;;;12.23;;
28481;SDS011;15703;49.588;6.260;2023-03-15T04:06:58;18.90;;;10.13;;
28481;SDS011;15703;49.588;6.260;2023-03-15T04:09:29;20.77;;;10.47;;
28481;SDS011;15703;49.588;6.260;2023-03-15T04:11:51;16.47;;;9.87;;
28481;SDS011;15703;49.588;6.260;2023-03-15T04:14:17;14.13;;;10.17;;
28481;SDS011;15703;49.588;6.260;2023-03-15T04:16:42;25.40;;;11.60;;
28481;SDS011;15703;49.588;6.260;2023-03-15T04:19:09;20.77;;;11.40;;
28481;SDS011;15703;49.588;6.260;2023-03-15T04:21:34;19.60;;;10.93;;
28481;SDS011;15703;49.588;6.260;2023-03-15T04:24:23;15.80;;;9.13;;
28481;SDS011;15703;49.588;6.260;2023-03-15T04:27:03;24.60;;;10.00;;
28481;SDS011;15703;49.588;6.260;2023-03-15T04:29:46;17.73;;;9.73;;
28481;SDS011;15703;49.588;6.260;2023-03-15T04:32:19;15.40;;;9.50;;
28481;SDS011;15703;49.588;6.260;2023-03-15T04:34:49;20.33;;;9.57;;
28481;SDS011;15703;49.588;6.260;2023-03-15T04:37:30;15.20;;;9.07;;
28481;SDS011;15703;49.588;6.260;2023-03-15T04:40:23;14.53;;;9.33;;
28481;SDS011;15703;49.588;6.260;2023-03-15T04:43:10;16.63;;;9.13;;
28481;SDS011;15703;49.588;6.260;2023-03-15T04:45:42;15.23;;;9.90;;
28481;SDS011;15703;49.588;6.260;2023-03-15T04:48:43;16.73;;;9.30;;
28481;SDS011;15703;49.588;6.260;2023-03-15T04:51:27;20.67;;;10.00;;
28481;SDS011;15703;49.588;6.260;2023-03-15T04:54:10;18.37;;;10.17;;
28481;SDS011;15703;49.588;6.260;2023-03-15T04:56:51;15.40;;;9.07;;
28481;SDS011;15703;49.588;6.260;2023-03-15T04:59:33;18.03;;;9.53;;
28481;SDS011;15703;49.588;6.260;2023-03-15T05:02:11;16.73;;;10.10;;
28481;SDS011;15703;49.588;6.260;2023-03-15T05:04:52;17.13;;;8.97;;
28481;SDS011;15703;49.588;6.260;2023-03-15T05:07:33;14.83;;;8.70;;
28481;SDS011;15703;49.588;6.260;2023-03-15T05:10:15;20.00;;;9.03;;
28481;SDS011;15703;49.588;6.260;2023-03-15T05:12:57;14.23;;;9.17;;
28481;SDS011;15703;49.588;6.260;2023-03-15T05:15:42;14.87;;;9.37;;
28481;SDS011;15703;49.588;6.260;2023-03-15T05:18:23;19.17;;;9.33;;
28481;SDS011;15703;49.588;6.260;2023-03-15T05:21:04;15.80;;;9.67;;
28481;SDS011;15703;49.588;6.260;2023-03-15T05:23:37;15.07;;;9.73;;
28481;SDS011;15703;49.588;6.260;2023-03-15T05:26:08;23.00;;;9.97;;
28481;SDS011;15703;49.588;6.260;2023-03-15T05:29:06;14.57;;;9.23;;
28481;SDS011;15703;49.588;6.260;2023-03-15T05:31:39;17.13;;;8.97;;
28481;SDS011;15703;49.588;6.260;2023-03-15T05:34:04;14.67;;;9.17;;
28481;SDS011;15703;49.588;6.260;2023-03-15T05:36:51;16.40;;;9.30;;
28481;SDS011;15703;49.588;6.260;2023-03-15T05:39:34;18.27;;;10.00;;
28481;SDS011;15703;49.588;6.260;2023-03-15T05:42:23;16.53;;;9.60;;
28481;SDS011;15703;49.588;6.260;2023-03-15T05:44:56;28.60;;;10.63;;
28481;SDS011;15703;49.588;6.260;2023-03-15T05:47:40;18.03;;;9.67;;
28481;SDS011;15703;49.588;6.260;2023-03-15T05:50:22;17.03;;;9.17;;
28481;SDS011;15703;49.588;6.260;2023-03-15T05:53:03;20.53;;;10.43;;
28481;SDS011;15703;49.588;6.260;2023-03-15T05:55:38;18.90;;;10.07;;
28481;SDS011;15703;49.588;6.260;2023-03-15T05:58:21;21.70;;;10.97;;
28481;SDS011;15703;49.588;6.260;2023-03-15T06:00:58;15.37;;;10.17;;
28481;SDS011;15703;49.588;6.260;2023-03-15T06:03:41;16.83;;;10.93;;
28481;SDS011;15703;49.588;6.260;2023-03-15T06:06:12;20.03;;;9.90;;
28481;SDS011;15703;49.588;6.260;2023-03-15T06:08:35;16.77;;;10.60;;
28481;SDS011;15703;49.588;6.260;2023-03-15T06:10:58;15.67;;;10.20;;
28481;SDS011;15703;49.588;6.260;2023-03-15T06:13:20;15.07;;;8.47;;
28481;SDS011;15703;49.588;6.260;2023-03-15T06:15:45;17.47;;;9.37;;
28481;SDS011;15703;49.588;6.260;2023-03-15T06:18:08;16.87;;;10.03;;
28481;SDS011;15703;49.588;6.260;2023-03-15T06:20:30;18.73;;;9.97;;
28481;SDS011;15703;49.588;6.260;2023-03-15T06:22:59;19.97;;;10.73;;
28481;SDS011;15703;49.588;6.260;2023-03-15T06:25:38;16.67;;;9.73;;
28481;SDS011;15703;49.588;6.260;2023-03-15T06:28:00;13.07;;;9.70;;
28481;SDS011;15703;49.588;6.260;2023-03-15T06:30:23;20.03;;;10.50;;
28481;SDS011;15703;49.588;6.260;2023-03-15T06:32:49;17.93;;;9.93;;
28481;SDS011;15703;49.588;6.260;2023-03-15T06:35:12;17.33;;;10.27;;
28481;SDS011;15703;49.588;6.260;2023-03-15T06:37:35;20.90;;;10.87;;
28481;SDS011;15703;49.588;6.260;2023-03-15T06:39:57;15.63;;;10.40;;
28481;SDS011;15703;49.588;6.260;2023-03-15T06:42:20;21.03;;;12.97;;
28481;SDS011;15703;49.588;6.260;2023-03-15T06:44:43;23.10;;;11.03;;
28481;SDS011;15703;49.588;6.260;2023-03-15T06:47:07;16.63;;;10.73;;
28481;SDS011;15703;49.588;6.260;2023-03-15T06:49:30;18.07;;;10.77;;
28481;SDS011;15703;49.588;6.260;2023-03-15T06:51:54;17.50;;;10.67;;
28481;SDS011;15703;49.588;6.260;2023-03-15T06:54:16;15.53;;;10.70;;
28481;SDS011;15703;49.588;6.260;2023-03-15T06:56:38;17.03;;;10.63;;
28481;SDS011;15703;49.588;6.260;2023-03-15T06:59:01;13.07;;;9.53;;
28481;SDS011;15703;49.588;6.260;2023-03-15T07:01:23;13.47;;;8.73;;
28481;SDS011;15703;49.588;6.260;2023-03-15T07:03:46;15.60;;;9.67;;
28481;SDS011;15703;49.588;6.260;2023-03-15T07:06:11;15.40;;;9.53;;
28481;SDS011;15703;49.588;6.260;2023-03-15T07:08:36;14.17;;;9.80;;
28481;SDS011;15703;49.588;6.260;2023-03-15T07:10:58;13.87;;;8.77;;
28481;SDS011;15703;49.588;6.260;2023-03-15T07:13:21;15.77;;;9.20;;
28481;SDS011;15703;49.588;6.260;2023-03-15T07:15:43;16.17;;;9.40;;
28481;SDS011;15703;49.588;6.260;2023-03-15T07:18:06;19.10;;;9.77;;
28481;SDS011;15703;49.588;6.260;2023-03-15T07:20:28;12.40;;;9.23;;
28481;SDS011;15703;49.588;6.260;2023-03-15T07:22:51;13.83;;;9.57;;
28481;SDS011;15703;49.588;6.260;2023-03-15T07:25:15;14.63;;;9.00;;
28481;SDS011;15703;49.588;6.260;2023-03-15T07:27:44;14.63;;;9.40;;
28481;SDS011;15703;49.588;6.260;2023-03-15T07:30:06;15.23;;;9.30;;
28481;SDS011;15703;49.588;6.260;2023-03-15T07:32:29;17.23;;;9.83;;
28481;SDS011;15703;49.588;6.260;2023-03-15T07:34:53;16.80;;;9.63;;
28481;SDS011;15703;49.588;6.260;2023-03-15T07:37:18;12.90;;;9.67;;
28481;SDS011;15703;49.588;6.260;2023-03-15T07:39:43;14.97;;;11.53;;
28481;SDS011;15703;49.588;6.260;2023-03-15T07:42:07;15.07;;;10.03;;
28481;SDS011;15703;49.588;6.260;2023-03-15T07:44:34;14.77;;;10.27;;
28481;SDS011;15703;49.588;6.260;2023-03-15T07:46:57;15.80;;;11.57;;
28481;SDS011;15703;49.588;6.260;2023-03-15T07:49:19;15.93;;;11.77;;
28481;SDS011;15703;49.588;6.260;2023-03-15T07:51:42;12.87;;;10.13;;
28481;SDS011;15703;49.588;6.260;2023-03-15T07:54:04;17.77;;;11.27;;
28481;SDS011;15703;49.588;6.260;2023-03-15T07:56:26;19.47;;;10.73;;
28481;SDS011;15703;49.588;6.260;2023-03-15T07:58:48;14.43;;;10.10;;
28481;SDS011;15703;49.588;6.260;2023-03-15T08:01:13;12.73;;;8.63;;
28481;SDS011;15703;49.588;6.260;2023-03-15T08:03:35;15.27;;;8.80;;
28481;SDS011;15703;49.588;6.260;2023-03-15T08:05:58;8.77;;;7.90;;
28481;SDS011;15703;49.588;6.260;2023-03-15T08:08:20;15.13;;;7.93;;
28481;SDS011;15703;49.588;6.260;2023-03-15T08:10:42;13.87;;;7.60;;
28481;SDS011;15703;49.588;6.260;2023-03-15T08:13:05;9.40;;;7.23;;
28481;SDS011;15703;49.588;6.260;2023-03-15T08:15:27;9.30;;;7.13;;
28481;SDS011;15703;49.588;6.260;2023-03-15T08:17:50;9.07;;;7.30;;
28481;SDS011;15703;49.588;6.260;2023-03-15T08:20:12;8.40;;;7.07;;
28481;SDS011;15703;49.588;6.260;2023-03-15T08:22:37;9.60;;;6.93;;
28481;SDS011;15703;49.588;6.260;2023-03-15T08:25:00;8.87;;;7.93;;
28481;SDS011;15703;49.588;6.260;2023-03-15T08:27:23;9.40;;;7.27;;
28481;SDS011;15703;49.588;6.260;2023-03-15T08:29:45;8.70;;;7.17;;
28481;SDS011;15703;49.588;6.260;2023-03-15T08:32:07;11.77;;;8.53;;
28481;SDS011;15703;49.588;6.260;2023-03-15T08:34:29;9.40;;;7.73;;
28481;SDS011;15703;49.588;6.260;2023-03-15T08:36:54;10.83;;;7.53;;
28481;SDS011;15703;49.588;6.260;2023-03-15T08:39:17;8.87;;;7.53;;
28481;SDS011;15703;49.588;6.260;2023-03-15T08:41:39;10.53;;;7.87;;
28481;SDS011;15703;49.588;6.260;2023-03-15T08:44:03;10.43;;;8.20;;
28481;SDS011;15703;49.588;6.260;2023-03-15T08:46:26;11.67;;;8.27;;
28481;SDS011;15703;49.588;6.260;2023-03-15T08:48:48;12.23;;;8.10;;
28481;SDS011;15703;49.588;6.260;2023-03-15T08:51:11;9.90;;;8.20;;
28481;SDS011;15703;49.588;6.260;2023-03-15T08:53:33;12.73;;;8.50;;
28481;SDS011;15703;49.588;6.260;2023-03-15T08:55:56;12.47;;;9.60;;
28481;SDS011;15703;49.588;6.260;2023-03-15T08:58:18;11.43;;;9.30;;
28481;SDS011;15703;49.588;6.260;2023-03-15T09:00:40;11.43;;;8.60;;
28481;SDS011;15703;49.588;6.260;2023-03-15T09:03:03;11.30;;;8.83;;
28481;SDS011;15703;49.588;6.260;2023-03-15T09:05:25;12.87;;;7.60;;
28481;SDS011;15703;49.588;6.260;2023-03-15T09:07:47;11.57;;;7.13;;
28481;SDS011;15703;49.588;6.260;2023-03-15T09:10:11;9.90;;;6.87;;
28481;SDS011;15703;49.588;6.260;2023-03-15T09:12:36;7.77;;;6.57;;
28481;SDS011;15703;49.588;6.260;2023-03-15T09:14:58;10.00;;;7.40;;
28481;SDS011;15703;49.588;6.260;2023-03-15T09:17:20;8.33;;;6.97;;
28481;SDS011;15703;49.588;6.260;2023-03-15T09:19:43;9.03;;;7.30;;
28481;SDS011;15703;49.588;6.260;2023-03-15T09:22:05;7.50;;;6.70;;
28481;SDS011;15703;49.588;6.260;2023-03-15T09:24:43;8.33;;;6.40;;
28481;SDS011;15703;49.588;6.260;2023-03-15T09:27:05;8.07;;;5.80;;
28481;SDS011;15703;49.588;6.260;2023-03-15T09:29:28;6.63;;;5.93;;
28481;SDS011;15703;49.588;6.260;2023-03-15T09:31:50;8.50;;;5.77;;
28481;SDS011;15703;49.588;6.260;2023-03-15T09:34:13;7.97;;;6.83;;
28481;SDS011;15703;49.588;6.260;2023-03-15T09:36:35;6.03;;;5.43;;
28481;SDS011;15703;49.588;6.260;2023-03-15T09:38:57;6.90;;;5.97;;
28481;SDS011;15703;49.588;6.260;2023-03-15T09:41:27;6.80;;;6.20;;
28481;SDS011;15703;49.588;6.260;2023-03-15T09:44:00;7.87;;;7.07;;
28481;SDS011;15703;49.588;6.260;2023-03-15T09:46:33;7.40;;;6.70;;
28481;SDS011;15703;49.588;6.260;2023-03-15T09:49:04;6.33;;;5.80;;
28481;SDS011;15703;49.588;6.260;2023-03-15T09:51:37;5.90;;;5.30;;
28481;SDS011;15703;49.588;6.260;2023-03-15T09:54:10;6.50;;;5.90;;
28481;SDS011;15703;49.588;6.260;2023-03-15T09:58:59;5.30;;;4.77;;
28481;SDS011;15703;49.588;6.260;2023-03-15T10:01:24;5.47;;;4.97;;
28481;SDS011;15703;49.588;6.260;2023-03-15T10:03:50;5.00;;;4.50;;
28481;SDS011;15703;49.588;6.260;2023-03-15T10:06:23;5.13;;;4.37;;
28481;SDS011;15703;49.588;6.260;2023-03-15T10:08:49;4.50;;;4.20;;
28481;SDS011;15703;49.588;6.260;2023-03-15T10:11:13;4.70;;;4.30;;
28481;SDS011;15703;49.588;6.260;2023-03-15T10:13:45;5.13;;;4.67;;
28481;SDS011;15703;49.588;6.260;2023-03-15T10:18:53;4.63;;;4.13;;
28481;SDS011;15703;49.588;6.260;2023-03-15T10:21:28;4.77;;;4.07;;
28481;SDS011;15703;49.588;6.260;2023-03-15T10:23:53;3.47;;;3.07;;
28481;SDS011;15703;49.588;6.260;2023-03-15T10:26:17;3.53;;;3.23;;
28481;SDS011;15703;49.588;6.260;2023-03-15T10:28:40;4.17;;;3.53;;
28481;SDS011;15703;49.588;6.260;2023-03-15T10:31:14;3.63;;;3.33;;
28481;SDS011;15703;49.588;6.260;2023-03-15T10:33:46;4.10;;;3.67;;
28481;SDS011;15703;49.588;6.260;2023-03-15T10:36:13;4.00;;;3.50;;
28481;SDS011;15703;49.588;6.260;2023-03-15T10:38:37;4.23;;;2.60;;
28481;SDS011;15703;49.588;6.260;2023-03-15T10:41:00;6.23;;;2.87;;
28481;SDS011;15703;49.588;6.260;2023-03-15T10:43:23;3.77;;;3.37;;
28481;SDS011;15703;49.588;6.260;2023-03-15T10:46:08;3.57;;;3.00;;
28481;SDS011;15703;49.588;6.260;2023-03-15T10:48:32;4.17;;;3.10;;
28481;SDS011;15703;49.588;6.260;2023-03-15T10:50:55;3.53;;;2.87;;
28481;SDS011;15703;49.588;6.260;2023-03-15T10:53:19;2.93;;;2.30;;
28481;SDS011;15703;49.588;6.260;2023-03-15T10:55:43;2.37;;;2.20;;
28481;SDS011;15703;49.588;6.260;2023-03-15T10:58:24;3.67;;;2.17;;
28481;SDS011;15703;49.588;6.260;2023-03-15T11:01:02;2.93;;;2.63;;
28481;SDS011;15703;49.588;6.260;2023-03-15T11:03:27;3.40;;;3.10;;
28481;SDS011;15703;49.588;6.260;2023-03-15T11:05:52;5.07;;;3.40;;
28481;SDS011;15703;49.588;6.260;2023-03-15T11:08:15;3.70;;;3.40;;
28481;SDS011;15703;49.588;6.260;2023-03-15T11:10:39;6.40;;;3.50;;
28481;SDS011;15703;49.588;6.260;2023-03-15T11:13:12;3.83;;;3.47;;
28481;SDS011;15703;49.588;6.260;2023-03-15T11:15:35;4.00;;;3.37;;
28481;SDS011;15703;49.588;6.260;2023-03-15T11:17:57;3.37;;;3.07;;
28481;SDS011;15703;49.588;6.260;2023-03-15T11:20:28;2.87;;;2.67;;
28481;SDS011;15703;49.588;6.260;2023-03-15T11:22:51;2.93;;;2.73;;
28481;SDS011;15703;49.588;6.260;2023-03-15T11:25:15;3.10;;;2.73;;
28481;SDS011;15703;49.588;6.260;2023-03-15T11:27:38;2.40;;;2.27;;
28481;SDS011;15703;49.588;6.260;2023-03-15T11:30:02;3.03;;;2.13;;
28481;SDS011;15703;49.588;6.260;2023-03-15T11:32:52;2.10;;;1.90;;
28481;SDS011;15703;49.588;6.260;2023-03-15T11:35:20;2.73;;;2.50;;
28481;SDS011;15703;49.588;6.260;2023-03-15T11:37:51;2.47;;;2.10;;
28481;SDS011;15703;49.588;6.260;2023-03-15T11:40:29;2.30;;;2.10;;
28481;SDS011;15703;49.588;6.260;2023-03-15T11:43:00;2.90;;;2.60;;
28481;SDS011;15703;49.588;6.260;2023-03-15T11:45:46;3.23;;;2.93;;
28481;SDS011;15703;49.588;6.260;2023-03-15T11:48:30;2.70;;;2.50;;
28481;SDS011;15703;49.588;6.260;2023-03-15T11:50:57;3.97;;;3.67;;
28481;SDS011;15703;49.588;6.260;2023-03-15T11:53:20;2.70;;;2.47;;
28481;SDS011;15703;49.588;6.260;2023-03-15T11:55:48;4.23;;;3.43;;
28481;SDS011;15703;49.588;6.260;2023-03-15T11:58:31;3.47;;;3.17;;
28481;SDS011;15703;49.588;6.260;2023-03-15T12:00:54;4.37;;;3.93;;
28481;SDS011;15703;49.588;6.260;2023-03-15T12:10:43;5.73;;;3.37;;
28481;SDS011;15703;49.588;6.260;2023-03-15T12:13:15;4.23;;;3.20;;
28481;SDS011;15703;49.588;6.260;2023-03-15T12:18:04;2.90;;;2.57;;
28481;SDS011;15703;49.588;6.260;2023-03-15T12:28:19;3.33;;;2.30;;
28481;SDS011;15703;49.588;6.260;2023-03-15T12:30:43;3.43;;;2.43;;
28481;SDS011;15703;49.588;6.260;2023-03-15T12:33:13;1.97;;;1.77;;
28481;SDS011;15703;49.588;6.260;2023-03-15T12:35:38;2.40;;;2.00;;
28481;SDS011;15703;49.588;6.260;2023-03-15T12:38:09;1.67;;;1.57;;
28481;SDS011;15703;49.588;6.260;2023-03-15T12:47:44;2.30;;;2.13;;
28481;SDS011;15703;49.588;6.260;2023-03-15T12:52:48;1.97;;;1.87;;
28481;SDS011;15703;49.588;6.260;2023-03-15T12:55:14;2.63;;;1.87;;
28481;SDS011;15703;49.588;6.260;2023-03-15T12:57:47;2.47;;;2.37;;
28481;SDS011;15703;49.588;6.260;2023-03-15T13:00:13;3.23;;;2.07;;
28481;SDS011;15703;49.588;6.260;2023-03-15T13:02:41;1.90;;;1.80;;
28481;SDS011;15703;49.588;6.260;2023-03-15T13:07:39;2.10;;;2.00;;
28481;SDS011;15703;49.588;6.260;2023-03-15T13:10:26;2.33;;;2.23;;
28481;SDS011;15703;49.588;6.260;2023-03-15T13:18:02;2.00;;;1.90;;
28481;SDS011;15703;49.588;6.260;2023-03-15T13:20:37;2.00;;;1.90;;
28481;SDS011;15703;49.588;6.260;2023-03-15T13:23:20;2.00;;;1.90;;
28481;SDS011;15703;49.588;6.260;2023-03-15T13:25:56;1.77;;;1.67;;
28481;SDS011;15703;49.588;6.260;2023-03-15T13:28:24;1.57;;;1.50;;
28481;SDS011;15703;49.588;6.260;2023-03-15T13:30:48;1.60;;;1.50;;
28481;SDS011;15703;49.588;6.260;2023-03-15T13:33:20;2.43;;;1.43;;
28481;SDS011;15703;49.588;6.260;2023-03-15T13:36:04;1.63;;;1.50;;
28481;SDS011;15703;49.588;6.260;2023-03-15T13:38:32;1.30;;;1.20;;
28481;SDS011;15703;49.588;6.260;2023-03-15T13:40:56;1.53;;;1.10;;
28481;SDS011;15703;49.588;6.260;2023-03-15T13:43:22;1.87;;;1.30;;
28481;SDS011;15703;49.588;6.260;2023-03-15T13:46:37;0.87;;;0.87;;
28481;SDS011;15703;49.588;6.260;2023-03-15T13:49:10;1.10;;;1.00;;
28481;SDS011;15703;49.588;6.260;2023-03-15T13:51:34;1.73;;;1.30;;
28481;SDS011;15703;49.588;6.260;2023-03-15T13:54:04;2.20;;;1.30;;
28481;SDS011;15703;49.588;6.260;2023-03-15T13:56:34;4.53;;;1.30;;
28481;SDS011;15703;49.588;6.260;2023-03-15T13:59:09;1.07;;;0.97;;
28481;SDS011;15703;49.588;6.260;2023-03-15T14:01:35;1.67;;;1.03;;
28481;SDS011;15703;49.588;6.260;2023-03-15T14:04:04;1.37;;;1.27;;
28481;SDS011;15703;49.588;6.260;2023-03-15T14:06:27;1.27;;;1.17;;
28481;SDS011;15703;49.588;6.260;2023-03-15T14:08:51;2.17;;;1.23;;
28481;SDS011;15703;49.588;6.260;2023-03-15T14:11:17;3.17;;;1.33;;
28481;SDS011;15703;49.588;6.260;2023-03-15T14:13:47;1.20;;;1.10;;
28481;SDS011;15703;49.588;6.260;2023-03-15T14:16:13;2.37;;;1.27;;
28481;SDS011;15703;49.588;6.260;2023-03-15T14:19:06;1.20;;;1.10;;
28481;SDS011;15703;49.588;6.260;2023-03-15T14:24:35;1.43;;;1.13;;
28481;SDS011;15703;49.588;6.260;2023-03-15T14:26:59;2.63;;;1.00;;
28481;SDS011;15703;49.588;6.260;2023-03-15T14:29:24;1.87;;;1.07;;
28481;SDS011;15703;49.588;6.260;2023-03-15T14:32:05;1.30;;;1.20;;
28481;SDS011;15703;49.588;6.260;2023-03-15T14:34:36;3.60;;;1.10;;
28481;SDS011;15703;49.588;6.260;2023-03-15T14:36:59;1.93;;;1.27;;
28481;SDS011;15703;49.588;6.260;2023-03-15T14:41:50;2.30;;;1.30;;
28481;SDS011;15703;49.588;6.260;2023-03-15T14:44:13;1.13;;;1.10;;
28481;SDS011;15703;49.588;6.260;2023-03-15T14:46:35;2.53;;;1.33;;
28481;SDS011;15703;49.588;6.260;2023-03-15T14:48:57;1.53;;;1.20;;
28481;SDS011;15703;49.588;6.260;2023-03-15T14:51:20;1.40;;;1.30;;
28481;SDS011;15703;49.588;6.260;2023-03-15T14:53:43;1.67;;;1.57;;
28481;SDS011;15703;49.588;6.260;2023-03-15T14:56:06;1.33;;;1.23;;
28481;SDS011;15703;49.588;6.260;2023-03-15T14:58:29;2.00;;;1.80;;
28481;SDS011;15703;49.588;6.260;2023-03-15T15:00:52;4.83;;;1.80;;
28481;SDS011;15703;49.588;6.260;2023-03-15T15:05:46;2.07;;;1.77;;
28481;SDS011;15703;49.588;6.260;2023-03-15T15:08:12;3.23;;;1.70;;
28481;SDS011;15703;49.588;6.260;2023-03-15T15:10:35;1.40;;;1.23;;
28481;SDS011;15703;49.588;6.260;2023-03-15T15:12:57;1.90;;;1.80;;
28481;SDS011;15703;49.588;6.260;2023-03-15T15:15:27;1.50;;;1.40;;
28481;SDS011;15703;49.588;6.260;2023-03-15T15:17:51;2.40;;;1.70;;
28481;SDS011;15703;49.588;6.260;2023-03-15T15:20:14;2.40;;;2.00;;
28481;SDS011;15703;49.588;6.260;2023-03-15T15:22:40;1.97;;;1.50;;
28481;SDS011;15703;49.588;6.260;2023-03-15T15:25:07;3.57;;;2.03;;
28481;SDS011;15703;49.588;6.260;2023-03-15T15:27:30;2.30;;;1.90;;
28481;SDS011;15703;49.588;6.260;2023-03-15T15:29:52;3.23;;;1.60;;
28481;SDS011;15703;49.588;6.260;2023-03-15T15:32:14;2.13;;;1.93;;
28481;SDS011;15703;49.588;6.260;2023-03-15T15:34:37;2.30;;;1.50;;
28481;SDS011;15703;49.588;6.260;2023-03-15T15:37:01;1.60;;;1.50;;